sensor_id;sensor_type;location;lat;lon;timestamp;pressure;altitude;pressure_sealevel;temperature;humidity
33155;BME280;19511;42.682;23.332;2022-12-18T00:01:27;95929.13;;;6.57;100.00
33155;BME280;19511;42.682;23.332;2022-12-18T00:03:55;95936.09;;;6.50;100.00
33155;BME280;19511;42.682;23.332;2022-12-18T00:06:21;95923.66;;;6.37;100.00
33155;BME280;19511;42.682;23.332;2022-12-18T00:08:47;95931.78;;;6.30;100.00
33155;BME280;19511;42.682;23.332;2022-12-18T00:11:18;95943.09;;;6.28;100.00
33155;BME280;19511;42.682;23.332;2022-12-18T00:13:44;95927.13;;;6.14;100.00
33155;BME280;19511;42.682;23.332;2022-12-18T00:16:13;95855.72;;;5.55;100.00
33155;BME280;19511;42.682;23.332;2022-12-18T00:18:39;95941.16;;;6.09;100.00
33155;BME280;19511;42.682;23.332;2022-12-18T00:21:07;95946.66;;;6.09;100.00
33155;BME280;19511;42.682;23.332;2022-12-18T00:23:34;95933.06;;;5.97;100.00
33155;BME280;19511;42.682;23.332;2022-12-18T00:26:01;95952.03;;;6.02;100.00
33155;BME280;19511;42.682;23.332;2022-12-18T00:28:27;95963.00;;;6.02;100.00
33155;BME280;19511;42.682;23.332;2022-12-18T00:31:08;95964.53;;;5.99;100.00
33155;BME280;19511;42.682;23.332;2022-12-18T00:33:35;95853.69;;;5.33;100.00
33155;BME280;19511;42.682;23.332;2022-12-18T00:36:05;95970.31;;;5.98;100.00
33155;BME280;19511;42.682;23.332;2022-12-18T00:38:31;95976.91;;;5.93;100.00
33155;BME280;19511;42.682;23.332;2022-12-18T00:40:57;95957.25;;;5.91;100.00
33155;BME280;19511;42.682;23.332;2022-12-18T00:43:23;95910.16;;;5.53;100.00
33155;BME280;19511;42.682;23.332;2022-12-18T00:45:48;95885.28;;;5.27;100.00
33155;BME280;19511;42.682;23.332;2022-12-18T00:48:13;95981.28;;;5.78;100.00
33155;BME280;19511;42.682;23.332;2022-12-18T00:50:39;95960.47;;;5.58;100.00
33155;BME280;19511;42.682;23.332;2022-12-18T00:53:04;95879.59;;;5.00;100.00
33155;BME280;19511;42.682;23.332;2022-12-18T00:55:30;95898.06;;;5.03;100.00
33155;BME280;19511;42.682;23.332;2022-12-18T00:57:55;95977.03;;;5.45;100.00
33155;BME280;19511;42.682;23.332;2022-12-18T01:00:21;95971.72;;;5.36;100.00
33155;BME280;19511;42.682;23.332;2022-12-18T01:02:46;95979.94;;;5.52;100.00
33155;BME280;19511;42.682;23.332;2022-12-18T01:05:13;95987.13;;;5.41;100.00
33155;BME280;19511;42.682;23.332;2022-12-18T01:07:38;95990.75;;;5.45;100.00
33155;BME280;19511;42.682;23.332;2022-12-18T01:10:05;95981.75;;;5.29;100.00
33155;BME280;19511;42.682;23.332;2022-12-18T01:12:31;96006.34;;;5.41;100.00
33155;BME280;19511;42.682;23.332;2022-12-18T01:14:57;96005.69;;;5.32;100.00
33155;BME280;19511;42.682;23.332;2022-12-18T01:17:22;95995.91;;;5.31;100.00
33155;BME280;19511;42.682;23.332;2022-12-18T01:19:48;96003.06;;;5.35;100.00
33155;BME280;19511;42.682;23.332;2022-12-18T01:22:13;95984.03;;;5.27;100.00
33155;BME280;19511;42.682;23.332;2022-12-18T01:24:39;96002.25;;;5.35;100.00
33155;BME280;19511;42.682;23.332;2022-12-18T01:27:04;95998.00;;;5.21;100.00
33155;BME280;19511;42.682;23.332;2022-12-18T01:29:29;96002.53;;;5.30;100.00
33155;BME280;19511;42.682;23.332;2022-12-18T01:31:55;95924.59;;;4.67;100.00
33155;BME280;19511;42.682;23.332;2022-12-18T01:34:22;96006.31;;;5.09;100.00
33155;BME280;19511;42.682;23.332;2022-12-18T01:36:47;96020.47;;;5.11;100.00
33155;BME280;19511;42.682;23.332;2022-12-18T01:39:13;95947.66;;;4.66;100.00
33155;BME280;19511;42.682;23.332;2022-12-18T01:41:39;96032.34;;;5.15;100.00
33155;BME280;19511;42.682;23.332;2022-12-18T01:44:56;96034.19;;;5.11;100.00
33155;BME280;19511;42.682;23.332;2022-12-18T01:47:26;95995.53;;;4.84;100.00
33155;BME280;19511;42.682;23.332;2022-12-18T01:49:54;95928.00;;;4.32;100.00
33155;BME280;19511;42.682;23.332;2022-12-18T01:52:21;96013.31;;;4.90;100.00
33155;BME280;19511;42.682;23.332;2022-12-18T01:54:48;96033.47;;;4.98;100.00
33155;BME280;19511;42.682;23.332;2022-12-18T01:57:16;95942.41;;;4.29;100.00
33155;BME280;19511;42.682;23.332;2022-12-18T01:59:43;95978.72;;;4.41;100.00
33155;BME280;19511;42.682;23.332;2022-12-18T02:02:10;95961.50;;;4.41;100.00
33155;BME280;19511;42.682;23.332;2022-12-18T02:04:36;95942.69;;;4.11;100.00
33155;BME280;19511;42.682;23.332;2022-12-18T02:07:10;95941.59;;;4.00;100.00
33155;BME280;19511;42.682;23.332;2022-12-18T02:09:46;95934.63;;;4.02;100.00
33155;BME280;19511;42.682;23.332;2022-12-18T02:12:17;96048.38;;;4.69;100.00
33155;BME280;19511;42.682;23.332;2022-12-18T02:17:21;95999.59;;;4.46;100.00
33155;BME280;19511;42.682;23.332;2022-12-18T02:28:09;96051.91;;;4.69;100.00
33155;BME280;19511;42.682;23.332;2022-12-18T02:30:37;95955.28;;;4.00;100.00
33155;BME280;19511;42.682;23.332;2022-12-18T02:33:06;96071.97;;;4.73;100.00
33155;BME280;19511;42.682;23.332;2022-12-18T02:35:34;96069.09;;;4.54;100.00
33155;BME280;19511;42.682;23.332;2022-12-18T02:38:01;96069.09;;;4.54;100.00
33155;BME280;19511;42.682;23.332;2022-12-18T02:40:29;96052.44;;;4.47;100.00
33155;BME280;19511;42.682;23.332;2022-12-18T02:42:55;96065.31;;;4.58;100.00
33155;BME280;19511;42.682;23.332;2022-12-18T02:45:20;95986.41;;;4.07;100.00
33155;BME280;19511;42.682;23.332;2022-12-18T02:47:48;96066.59;;;4.49;100.00
33155;BME280;19511;42.682;23.332;2022-12-18T02:50:22;96071.47;;;4.55;100.00
33155;BME280;19511;42.682;23.332;2022-12-18T03:03:42;96069.28;;;4.33;100.00
33155;BME280;19511;42.682;23.332;2022-12-18T03:06:14;96071.88;;;4.41;100.00
33155;BME280;19511;42.682;23.332;2022-12-18T03:08:46;96079.41;;;4.45;100.00
33155;BME280;19511;42.682;23.332;2022-12-18T03:11:14;96031.31;;;4.19;100.00
33155;BME280;19511;42.682;23.332;2022-12-18T03:13:49;96032.47;;;4.18;100.00
33155;BME280;19511;42.682;23.332;2022-12-18T03:16:28;96096.50;;;4.54;100.00
33155;BME280;19511;42.682;23.332;2022-12-18T03:19:27;96097.09;;;4.47;100.00
33155;BME280;19511;42.682;23.332;2022-12-18T03:21:56;96099.84;;;4.47;100.00
33155;BME280;19511;42.682;23.332;2022-12-18T03:24:24;96016.69;;;3.86;100.00
33155;BME280;19511;42.682;23.332;2022-12-18T03:26:54;96098.25;;;4.34;100.00
33155;BME280;19511;42.682;23.332;2022-12-18T03:29:26;96109.69;;;4.36;100.00
33155;BME280;19511;42.682;23.332;2022-12-18T03:31:56;96058.63;;;4.03;100.00
33155;BME280;19511;42.682;23.332;2022-12-18T03:34:29;96018.66;;;3.73;100.00
33155;BME280;19511;42.682;23.332;2022-12-18T03:36:56;96113.56;;;4.35;100.00
33155;BME280;19511;42.682;23.332;2022-12-18T03:39:21;96036.44;;;3.80;100.00
33155;BME280;19511;42.682;23.332;2022-12-18T03:41:51;96126.56;;;4.38;100.00
33155;BME280;19511;42.682;23.332;2022-12-18T03:44:26;96138.69;;;4.37;100.00
33155;BME280;19511;42.682;23.332;2022-12-18T03:49:29;96139.22;;;4.43;100.00
33155;BME280;19511;42.682;23.332;2022-12-18T03:52:03;96139.22;;;4.43;100.00
33155;BME280;19511;42.682;23.332;2022-12-18T03:54:30;96143.66;;;4.47;100.00
33155;BME280;19511;42.682;23.332;2022-12-18T03:57:05;96138.63;;;4.49;100.00
33155;BME280;19511;42.682;23.332;2022-12-18T03:59:33;96067.22;;;3.89;100.00
33155;BME280;19511;42.682;23.332;2022-12-18T04:02:01;96154.19;;;4.33;100.00
33155;BME280;19511;42.682;23.332;2022-12-18T04:04:30;96152.38;;;4.37;100.00
33155;BME280;19511;42.682;23.332;2022-12-18T04:06:57;96148.28;;;4.31;100.00
33155;BME280;19511;42.682;23.332;2022-12-18T04:09:24;96074.63;;;3.76;100.00
33155;BME280;19511;42.682;23.332;2022-12-18T04:11:51;96157.84;;;4.24;100.00
33155;BME280;19511;42.682;23.332;2022-12-18T04:14:17;96155.66;;;4.30;100.00
33155;BME280;19511;42.682;23.332;2022-12-18T04:16:42;96156.72;;;4.13;100.00
33155;BME280;19511;42.682;23.332;2022-12-18T04:19:07;96164.03;;;4.09;100.00
33155;BME280;19511;42.682;23.332;2022-12-18T04:21:33;96168.81;;;4.12;100.00
33155;BME280;19511;42.682;23.332;2022-12-18T04:23:58;96181.13;;;4.06;100.00
33155;BME280;19511;42.682;23.332;2022-12-18T04:26:24;96162.91;;;3.98;100.00
33155;BME280;19511;42.682;23.332;2022-12-18T04:28:49;96180.47;;;4.09;100.00
33155;BME280;19511;42.682;23.332;2022-12-18T04:31:15;96169.03;;;4.07;100.00
33155;BME280;19511;42.682;23.332;2022-12-18T04:33:40;96196.44;;;4.19;100.00
33155;BME280;19511;42.682;23.332;2022-12-18T04:36:06;96149.78;;;3.79;100.00
33155;BME280;19511;42.682;23.332;2022-12-18T04:38:31;96185.94;;;4.09;100.00
33155;BME280;19511;42.682;23.332;2022-12-18T04:40:57;96088.28;;;3.39;100.00
33155;BME280;19511;42.682;23.332;2022-12-18T04:43:23;96183.88;;;3.93;100.00
33155;BME280;19511;42.682;23.332;2022-12-18T04:45:48;96111.53;;;3.45;100.00
33155;BME280;19511;42.682;23.332;2022-12-18T04:48:14;96191.06;;;3.98;100.00
33155;BME280;19511;42.682;23.332;2022-12-18T04:50:39;96198.38;;;4.06;100.00
33155;BME280;19511;42.682;23.332;2022-12-18T04:53:04;96208.28;;;4.11;100.00
33155;BME280;19511;42.682;23.332;2022-12-18T04:55:30;96205.78;;;4.06;100.00
33155;BME280;19511;42.682;23.332;2022-12-18T04:57:55;96220.38;;;4.10;100.00
33155;BME280;19511;42.682;23.332;2022-12-18T05:00:22;96220.16;;;4.03;100.00
33155;BME280;19511;42.682;23.332;2022-12-18T05:02:48;96216.03;;;3.97;100.00
33155;BME280;19511;42.682;23.332;2022-12-18T05:05:13;96188.22;;;3.82;100.00
33155;BME280;19511;42.682;23.332;2022-12-18T05:07:39;96144.16;;;3.50;100.00
33155;BME280;19511;42.682;23.332;2022-12-18T05:10:05;96210.91;;;3.95;100.00
33155;BME280;19511;42.682;23.332;2022-12-18T05:12:30;96233.25;;;3.97;100.00
33155;BME280;19511;42.682;23.332;2022-12-18T05:14:56;96247.97;;;3.92;100.00
33155;BME280;19511;42.682;23.332;2022-12-18T05:17:21;96246.25;;;3.88;100.00
33155;BME280;19511;42.682;23.332;2022-12-18T05:19:47;96243.63;;;3.79;100.00
33155;BME280;19511;42.682;23.332;2022-12-18T05:22:12;96149.06;;;3.11;100.00
33155;BME280;19511;42.682;23.332;2022-12-18T05:24:38;96234.94;;;3.65;100.00
33155;BME280;19511;42.682;23.332;2022-12-18T05:27:03;96244.06;;;3.69;100.00
33155;BME280;19511;42.682;23.332;2022-12-18T05:29:29;96252.72;;;3.71;100.00
33155;BME280;19511;42.682;23.332;2022-12-18T05:31:54;96262.53;;;3.72;100.00
33155;BME280;19511;42.682;23.332;2022-12-18T05:34:19;96267.97;;;3.59;100.00
33155;BME280;19511;42.682;23.332;2022-12-18T05:36:45;96227.25;;;3.46;100.00
33155;BME280;19511;42.682;23.332;2022-12-18T05:39:10;96175.69;;;3.02;100.00
33155;BME280;19511;42.682;23.332;2022-12-18T05:41:36;96263.94;;;3.45;100.00
33155;BME280;19511;42.682;23.332;2022-12-18T05:44:01;96272.28;;;3.48;100.00
33155;BME280;19511;42.682;23.332;2022-12-18T05:46:27;96271.03;;;3.58;100.00
33155;BME280;19511;42.682;23.332;2022-12-18T05:48:52;96282.84;;;3.71;100.00
33155;BME280;19511;42.682;23.332;2022-12-18T05:51:20;96277.38;;;3.71;100.00
33155;BME280;19511;42.682;23.332;2022-12-18T05:53:49;96274.94;;;3.69;100.00
33155;BME280;19511;42.682;23.332;2022-12-18T05:56:17;96283.84;;;3.66;100.00
33155;BME280;19511;42.682;23.332;2022-12-18T05:58:44;96284.00;;;3.49;100.00
33155;BME280;19511;42.682;23.332;2022-12-18T06:01:29;96287.13;;;3.59;100.00
33155;BME280;19511;42.682;23.332;2022-12-18T06:03:55;96198.59;;;2.97;100.00
33155;BME280;19511;42.682;23.332;2022-12-18T06:06:24;96299.66;;;3.60;100.00
33155;BME280;19511;42.682;23.332;2022-12-18T06:08:50;96298.50;;;3.49;100.00
33155;BME280;19511;42.682;23.332;2022-12-18T06:11:18;96307.75;;;3.57;100.00
33155;BME280;19511;42.682;23.332;2022-12-18T06:13:44;96275.75;;;3.36;100.00
33155;BME280;19511;42.682;23.332;2022-12-18T06:16:10;96311.97;;;3.54;100.00
33155;BME280;19511;42.682;23.332;2022-12-18T06:18:38;96222.56;;;2.91;100.00
33155;BME280;19511;42.682;23.332;2022-12-18T06:21:03;96207.00;;;2.71;100.00
33155;BME280;19511;42.682;23.332;2022-12-18T06:23:29;96305.75;;;3.45;100.00
33155;BME280;19511;42.682;23.332;2022-12-18T06:25:57;96313.22;;;3.57;100.00
33155;BME280;19511;42.682;23.332;2022-12-18T06:28:23;96235.03;;;3.01;100.00
33155;BME280;19511;42.682;23.332;2022-12-18T06:30:51;96229.91;;;3.00;100.00
33155;BME280;19511;42.682;23.332;2022-12-18T06:33:18;96338.44;;;3.63;100.00
33155;BME280;19511;42.682;23.332;2022-12-18T06:35:43;96333.56;;;3.68;100.00
33155;BME280;19511;42.682;23.332;2022-12-18T06:38:09;96244.88;;;3.15;100.00
33155;BME280;19511;42.682;23.332;2022-12-18T06:40:37;96329.66;;;3.69;100.00
33155;BME280;19511;42.682;23.332;2022-12-18T06:43:03;96349.22;;;3.80;100.00
33155;BME280;19511;42.682;23.332;2022-12-18T06:45:30;96335.81;;;3.66;100.00
33155;BME280;19511;42.682;23.332;2022-12-18T06:47:58;96348.16;;;3.72;100.00
33155;BME280;19511;42.682;23.332;2022-12-18T06:50:24;96340.31;;;3.71;100.00
33155;BME280;19511;42.682;23.332;2022-12-18T06:52:49;96255.50;;;3.16;100.00
33155;BME280;19511;42.682;23.332;2022-12-18T06:55:14;96336.63;;;3.67;100.00
33155;BME280;19511;42.682;23.332;2022-12-18T06:57:40;96351.97;;;3.80;100.00
33155;BME280;19511;42.682;23.332;2022-12-18T07:00:06;96349.88;;;3.77;100.00
33155;BME280;19511;42.682;23.332;2022-12-18T07:02:35;96343.25;;;3.66;100.00
33155;BME280;19511;42.682;23.332;2022-12-18T07:05:06;96312.28;;;3.53;100.00
33155;BME280;19511;42.682;23.332;2022-12-18T07:07:33;96358.44;;;3.75;100.00
33155;BME280;19511;42.682;23.332;2022-12-18T07:09:59;96365.84;;;3.75;100.00
33155;BME280;19511;42.682;23.332;2022-12-18T07:12:27;96359.78;;;3.69;100.00
33155;BME280;19511;42.682;23.332;2022-12-18T07:14:53;96309.81;;;3.39;100.00
33155;BME280;19511;42.682;23.332;2022-12-18T07:17:18;96373.38;;;3.78;100.00
33155;BME280;19511;42.682;23.332;2022-12-18T07:19:44;96353.38;;;3.65;100.00
33155;BME280;19511;42.682;23.332;2022-12-18T07:22:09;96357.91;;;3.61;100.00
33155;BME280;19511;42.682;23.332;2022-12-18T07:24:35;96362.91;;;3.59;100.00
33155;BME280;19511;42.682;23.332;2022-12-18T07:27:00;96365.78;;;3.63;100.00
33155;BME280;19511;42.682;23.332;2022-12-18T07:29:31;96365.66;;;3.59;100.00
33155;BME280;19511;42.682;23.332;2022-12-18T07:31:56;96376.72;;;3.63;100.00
33155;BME280;19511;42.682;23.332;2022-12-18T07:34:22;96380.16;;;3.59;100.00
33155;BME280;19511;42.682;23.332;2022-12-18T07:36:50;96383.09;;;3.54;100.00
33155;BME280;19511;42.682;23.332;2022-12-18T07:39:15;96383.94;;;3.46;100.00
33155;BME280;19511;42.682;23.332;2022-12-18T07:41:40;96326.03;;;3.02;100.00
33155;BME280;19511;42.682;23.332;2022-12-18T07:44:12;96374.09;;;3.33;100.00
33155;BME280;19511;42.682;23.332;2022-12-18T07:46:37;96301.88;;;2.83;100.00
33155;BME280;19511;42.682;23.332;2022-12-18T07:49:05;96283.63;;;2.74;100.00
33155;BME280;19511;42.682;23.332;2022-12-18T07:51:31;96395.16;;;3.53;100.00
33155;BME280;19511;42.682;23.332;2022-12-18T07:53:56;96305.69;;;2.90;100.00
33155;BME280;19511;42.682;23.332;2022-12-18T07:56:22;96396.78;;;3.54;100.00
33155;BME280;19511;42.682;23.332;2022-12-18T07:58:47;96353.66;;;3.09;100.00
33155;BME280;19511;42.682;23.332;2022-12-18T08:01:13;96410.66;;;3.49;100.00
33155;BME280;19511;42.682;23.332;2022-12-18T08:03:39;96377.94;;;3.32;100.00
33155;BME280;19511;42.682;23.332;2022-12-18T08:06:07;96303.72;;;2.70;100.00
33155;BME280;19511;42.682;23.332;2022-12-18T08:08:34;96348.56;;;2.99;100.00
33155;BME280;19511;42.682;23.332;2022-12-18T08:10:59;96422.72;;;3.48;100.00
33155;BME280;19511;42.682;23.332;2022-12-18T08:13:26;96429.47;;;3.51;100.00
33155;BME280;19511;42.682;23.332;2022-12-18T08:15:59;96429.19;;;3.43;100.00
33155;BME280;19511;42.682;23.332;2022-12-18T08:18:25;96442.72;;;3.40;100.00
33155;BME280;19511;42.682;23.332;2022-12-18T08:20:50;96387.78;;;3.03;100.00
33155;BME280;19511;42.682;23.332;2022-12-18T08:23:16;96450.91;;;3.40;100.00
33155;BME280;19511;42.682;23.332;2022-12-18T08:25:41;96406.72;;;3.08;100.00
33155;BME280;19511;42.682;23.332;2022-12-18T08:28:07;96453.69;;;3.31;100.00
33155;BME280;19511;42.682;23.332;2022-12-18T08:30:32;96431.56;;;3.24;100.00
33155;BME280;19511;42.682;23.332;2022-12-18T08:32:58;96356.38;;;2.79;100.00
33155;BME280;19511;42.682;23.332;2022-12-18T08:35:23;96464.16;;;3.38;100.00
33155;BME280;19511;42.682;23.332;2022-12-18T08:37:49;96466.22;;;3.41;100.00
33155;BME280;19511;42.682;23.332;2022-12-18T08:40:15;96454.66;;;3.35;100.00
33155;BME280;19511;42.682;23.332;2022-12-18T08:42:40;96450.75;;;3.15;100.00
33155;BME280;19511;42.682;23.332;2022-12-18T08:45:24;96454.53;;;3.32;100.00
33155;BME280;19511;42.682;23.332;2022-12-18T08:47:50;96448.75;;;3.24;100.00
33155;BME280;19511;42.682;23.332;2022-12-18T08:50:16;96461.59;;;3.33;100.00
33155;BME280;19511;42.682;23.332;2022-12-18T08:52:41;96466.69;;;3.43;100.00
33155;BME280;19511;42.682;23.332;2022-12-18T08:55:08;96355.31;;;2.71;100.00
33155;BME280;19511;42.682;23.332;2022-12-18T08:57:33;96465.13;;;3.33;100.00
33155;BME280;19511;42.682;23.332;2022-12-18T08:59:59;96467.19;;;3.36;100.00
33155;BME280;19511;42.682;23.332;2022-12-18T09:02:24;96364.41;;;2.84;100.00
33155;BME280;19511;42.682;23.332;2022-12-18T09:04:56;96450.13;;;3.39;100.00
33155;BME280;19511;42.682;23.332;2022-12-18T09:07:22;96461.47;;;3.50;100.00
33155;BME280;19511;42.682;23.332;2022-12-18T09:09:47;96463.03;;;3.60;100.00
33155;BME280;19511;42.682;23.332;2022-12-18T09:12:13;96451.75;;;3.62;100.00
33155;BME280;19511;42.682;23.332;2022-12-18T09:14:38;96428.84;;;3.45;100.00
33155;BME280;19511;42.682;23.332;2022-12-18T09:17:03;96453.34;;;3.63;100.00
33155;BME280;19511;42.682;23.332;2022-12-18T09:19:29;96462.19;;;3.68;100.00
33155;BME280;19511;42.682;23.332;2022-12-18T09:21:54;96449.34;;;3.60;100.00
33155;BME280;19511;42.682;23.332;2022-12-18T09:24:20;96465.63;;;3.56;100.00
33155;BME280;19511;42.682;23.332;2022-12-18T09:26:48;96337.75;;;2.81;100.00
33155;BME280;19511;42.682;23.332;2022-12-18T09:29:15;96450.34;;;3.55;100.00
33155;BME280;19511;42.682;23.332;2022-12-18T09:31:47;96443.72;;;3.56;100.00
33155;BME280;19511;42.682;23.332;2022-12-18T09:34:12;96464.56;;;3.70;100.00
33155;BME280;19511;42.682;23.332;2022-12-18T09:36:38;96367.50;;;3.04;100.00
33155;BME280;19511;42.682;23.332;2022-12-18T09:39:03;96360.44;;;3.03;100.00
33155;BME280;19511;42.682;23.332;2022-12-18T09:41:52;96461.97;;;3.73;100.00
33155;BME280;19511;42.682;23.332;2022-12-18T09:46:54;96454.28;;;3.67;100.00
33155;BME280;19511;42.682;23.332;2022-12-18T09:51:55;96462.84;;;3.86;100.00
33155;BME280;19511;42.682;23.332;2022-12-18T09:54:33;96401.91;;;3.56;100.00
33155;BME280;19511;42.682;23.332;2022-12-18T09:57:01;96453.28;;;3.92;100.00
33155;BME280;19511;42.682;23.332;2022-12-18T09:59:35;96453.09;;;3.98;100.00
33155;BME280;19511;42.682;23.332;2022-12-18T10:02:31;96455.63;;;4.03;100.00
33155;BME280;19511;42.682;23.332;2022-12-18T10:05:12;96343.94;;;3.20;100.00
33155;BME280;19511;42.682;23.332;2022-12-18T10:08:25;96458.78;;;3.92;100.00
33155;BME280;19511;42.682;23.332;2022-12-18T10:10:57;96437.59;;;3.81;100.00
33155;BME280;19511;42.682;23.332;2022-12-18T10:13:48;96456.63;;;3.98;100.00
33155;BME280;19511;42.682;23.332;2022-12-18T10:16:43;96433.59;;;3.78;100.00
33155;BME280;19511;42.682;23.332;2022-12-18T10:21:58;96466.97;;;3.92;100.00
33155;BME280;19511;42.682;23.332;2022-12-18T10:27:15;96370.75;;;3.48;100.00
33155;BME280;19511;42.682;23.332;2022-12-18T10:29:47;96467.91;;;4.18;100.00
33155;BME280;19511;42.682;23.332;2022-12-18T10:32:20;96460.75;;;4.25;100.00
33155;BME280;19511;42.682;23.332;2022-12-18T10:34:52;96455.06;;;4.43;100.00
33155;BME280;19511;42.682;23.332;2022-12-18T10:37:20;96370.44;;;3.83;100.00
33155;BME280;19511;42.682;23.332;2022-12-18T10:40:14;96455.78;;;4.19;100.00
33155;BME280;19511;42.682;23.332;2022-12-18T10:42:40;96454.09;;;4.27;100.00
33155;BME280;19511;42.682;23.332;2022-12-18T10:45:18;96461.56;;;4.38;100.00
33155;BME280;19511;42.682;23.332;2022-12-18T10:47:45;96454.88;;;4.48;100.00
33155;BME280;19511;42.682;23.332;2022-12-18T10:50:40;96432.50;;;4.46;100.00
33155;BME280;19511;42.682;23.332;2022-12-18T10:53:19;96363.19;;;4.00;100.00
33155;BME280;19511;42.682;23.332;2022-12-18T10:55:45;96447.31;;;4.45;100.00
33155;BME280;19511;42.682;23.332;2022-12-18T10:58:25;96451.91;;;4.53;100.00
33155;BME280;19511;42.682;23.332;2022-12-18T11:01:05;96444.53;;;4.66;100.00
33155;BME280;19511;42.682;23.332;2022-12-18T11:06:08;96442.34;;;4.72;100.00
33155;BME280;19511;42.682;23.332;2022-12-18T11:08:34;96451.97;;;4.78;100.00
33155;BME280;19511;42.682;23.332;2022-12-18T11:11:00;96440.06;;;4.74;100.00
33155;BME280;19511;42.682;23.332;2022-12-18T11:13:28;96369.66;;;4.29;100.00
33155;BME280;19511;42.682;23.332;2022-12-18T11:15:54;96453.56;;;4.79;100.00
33155;BME280;19511;42.682;23.332;2022-12-18T11:18:26;96450.13;;;4.70;100.00
33155;BME280;19511;42.682;23.332;2022-12-18T11:21:12;96446.69;;;4.73;100.00
33155;BME280;19511;42.682;23.332;2022-12-18T11:26:12;96453.41;;;4.63;100.00
33155;BME280;19511;42.682;23.332;2022-12-18T11:28:46;96453.97;;;4.56;100.00
33155;BME280;19511;42.682;23.332;2022-12-18T11:33:43;96437.75;;;4.51;100.00
33155;BME280;19511;42.682;23.332;2022-12-18T11:36:10;96425.06;;;4.47;100.00
33155;BME280;19511;42.682;23.332;2022-12-18T11:38:42;96446.53;;;4.57;100.00
33155;BME280;19511;42.682;23.332;2022-12-18T11:41:32;96422.53;;;4.41;100.00
33155;BME280;19511;42.682;23.332;2022-12-18T11:44:24;96454.56;;;4.62;100.00
33155;BME280;19511;42.682;23.332;2022-12-18T11:46:56;96448.88;;;4.67;100.00
33155;BME280;19511;42.682;23.332;2022-12-18T11:49:28;96445.88;;;4.60;100.00
33155;BME280;19511;42.682;23.332;2022-12-18T11:52:22;96468.38;;;4.66;100.00
33155;BME280;19511;42.682;23.332;2022-12-18T11:54:58;96444.63;;;4.57;100.00
33155;BME280;19511;42.682;23.332;2022-12-18T11:57:45;96443.47;;;4.58;100.00
33155;BME280;19511;42.682;23.332;2022-12-18T12:00:24;96452.28;;;4.64;100.00
33155;BME280;19511;42.682;23.332;2022-12-18T12:06:08;96448.88;;;4.67;100.00
33155;BME280;19511;42.682;23.332;2022-12-18T12:11:37;96449.09;;;4.62;100.00
33155;BME280;19511;42.682;23.332;2022-12-18T12:14:16;96454.22;;;4.64;100.00
33155;BME280;19511;42.682;23.332;2022-12-18T12:19:48;96451.84;;;4.62;100.00
33155;BME280;19511;42.682;23.332;2022-12-18T12:22:33;96460.84;;;4.63;100.00
33155;BME280;19511;42.682;23.332;2022-12-18T12:26:01;96445.75;;;4.56;100.00
33155;BME280;19511;42.682;23.332;2022-12-18T12:31:22;96454.91;;;4.73;100.00
33155;BME280;19511;42.682;23.332;2022-12-18T12:39:44;96459.38;;;4.90;100.00
33155;BME280;19511;42.682;23.332;2022-12-18T12:45:51;96438.72;;;4.80;100.00
33155;BME280;19511;42.682;23.332;2022-12-18T12:50:53;96457.81;;;4.89;100.00
33155;BME280;19511;42.682;23.332;2022-12-18T12:53:26;96452.41;;;4.93;100.00
33155;BME280;19511;42.682;23.332;2022-12-18T12:55:54;96425.25;;;4.75;100.00
33155;BME280;19511;42.682;23.332;2022-12-18T12:58:38;96461.94;;;4.95;100.00
33155;BME280;19511;42.682;23.332;2022-12-18T13:01:23;96455.63;;;4.82;100.00
33155;BME280;19511;42.682;23.332;2022-12-18T13:06:36;96481.22;;;4.99;100.00
33155;BME280;19511;42.682;23.332;2022-12-18T13:09:05;96462.13;;;4.90;100.00
33155;BME280;19511;42.682;23.332;2022-12-18T13:11:46;96478.94;;;4.88;100.00
33155;BME280;19511;42.682;23.332;2022-12-18T13:14:36;96490.09;;;4.71;100.00
33155;BME280;19511;42.682;23.332;2022-12-18T13:20:11;96487.41;;;4.50;100.00
33155;BME280;19511;42.682;23.332;2022-12-18T13:22:46;96493.25;;;4.48;100.00
33155;BME280;19511;42.682;23.332;2022-12-18T13:25:31;96396.88;;;3.79;100.00
33155;BME280;19511;42.682;23.332;2022-12-18T13:28:06;96505.69;;;4.46;100.00
33155;BME280;19511;42.682;23.332;2022-12-18T13:43:47;96506.53;;;4.71;100.00
33155;BME280;19511;42.682;23.332;2022-12-18T13:51:22;96447.84;;;4.26;100.00
33155;BME280;19511;42.682;23.332;2022-12-18T13:56:29;96519.91;;;4.72;100.00
33155;BME280;19511;42.682;23.332;2022-12-18T13:59:17;96521.41;;;4.70;100.00
33155;BME280;19511;42.682;23.332;2022-12-18T14:04:40;96528.25;;;4.76;100.00
33155;BME280;19511;42.682;23.332;2022-12-18T14:07:15;96528.34;;;4.67;100.00
33155;BME280;19511;42.682;23.332;2022-12-18T14:09:59;96513.69;;;4.63;100.00
33155;BME280;19511;42.682;23.332;2022-12-18T14:12:33;96534.06;;;4.74;100.00
33155;BME280;19511;42.682;23.332;2022-12-18T14:17:56;96454.41;;;4.13;100.00
33155;BME280;19511;42.682;23.332;2022-12-18T14:20:25;96547.75;;;4.62;100.00
33155;BME280;19511;42.682;23.332;2022-12-18T14:22:51;96543.19;;;4.66;100.00
33155;BME280;19511;42.682;23.332;2022-12-18T14:25:20;96543.28;;;4.57;100.00
33155;BME280;19511;42.682;23.332;2022-12-18T14:30:37;96543.94;;;4.54;100.00
33155;BME280;19511;42.682;23.332;2022-12-18T14:33:27;96550.56;;;4.53;100.00
33155;BME280;19511;42.682;23.332;2022-12-18T14:36:00;96549.63;;;4.49;100.00
33155;BME280;19511;42.682;23.332;2022-12-18T14:41:05;96555.09;;;4.49;100.00
33155;BME280;19511;42.682;23.332;2022-12-18T14:43:35;96546.88;;;4.49;100.00
33155;BME280;19511;42.682;23.332;2022-12-18T14:46:03;96545.63;;;4.47;100.00
33155;BME280;19511;42.682;23.332;2022-12-18T14:48:48;96547.09;;;4.44;100.00